Time;durP1;ratioP1;P1;durP2;ratioP2;P2;SDS_P1;SDS_P2;PMS_P1;PMS_P2;Temp;Humidity;BMP_temperature;BMP_pressure;BME280_temperature;BME280_humidity;BME280_pressure;Samples;Min_cycle;Max_cycle;Signal;HPM_P1;HPM_P2
2023/03/06 00:01:17;;;;;;;2.97;2.77;;;;;;;;;;5063478;28;20241;-53
2023/03/06 00:03:43;;;;;;;4.23;3.30;;;;;;;;;;5058762;28;20680;-54
2023/03/06 00:06:10;;;;;;;4.03;3.33;;;;;;;;;;5064547;28;20238;-51
2023/03/06 00:08:36;;;;;;;4.40;3.53;;;;;;;;;;5064829;28;20244;-52
2023/03/06 00:11:02;;;;;;;5.37;3.97;;;;;;;;;;5063657;28;20234;-52
2023/03/06 00:13:30;;;;;;;6.17;4.20;;;;;;;;;;5066686;28;20792;-52
2023/03/06 00:15:59;;;;;;;6.63;4.07;;;;;;;;;;5062845;28;20914;-51
2023/03/06 00:18:26;;;;;;;4.93;4.37;;;;;;;;;;5055891;28;20234;-52
2023/03/06 00:20:52;;;;;;;6.00;4.43;;;;;;;;;;5065094;28;20321;-52
2023/03/06 00:23:19;;;;;;;5.60;4.47;;;;;;;;;;5064620;28;20245;-52
2023/03/06 00:25:45;;;;;;;7.97;4.90;;;;;;;;;;5063937;28;20233;-52
2023/03/06 00:28:14;;;;;;;4.63;4.00;;;;;;;;;;5058698;28;20246;-52
2023/03/06 00:30:41;;;;;;;4.97;4.50;;;;;;;;;;5063078;28;20230;-52
2023/03/06 00:33:09;;;;;;;5.87;4.27;;;;;;;;;;5057270;28;20337;-51
2023/03/06 00:35:37;;;;;;;4.27;3.67;;;;;;;;;;5069401;28;20718;-51
2023/03/06 00:38:04;;;;;;;4.97;3.90;;;;;;;;;;5055591;28;20226;-53
2023/03/06 00:40:31;;;;;;;6.10;4.50;;;;;;;;;;5064344;28;20234;-52
2023/03/06 00:42:57;;;;;;;5.40;3.77;;;;;;;;;;5056943;28;20243;-52
2023/03/06 00:45:23;;;;;;;5.77;4.43;;;;;;;;;;5064320;28;20317;-52
2023/03/06 00:47:50;;;;;;;7.67;4.33;;;;;;;;;;5056569;28;21918;-54
2023/03/06 00:50:18;;;;;;;6.03;4.30;;;;;;;;;;5055984;28;20652;-54
2023/03/06 00:52:45;;;;;;;8.60;5.03;;;;;;;;;;5056796;28;20238;-53
2023/03/06 00:55:11;;;;;;;6.67;4.50;;;;;;;;;;5064538;28;20238;-52
2023/03/06 00:57:37;;;;;;;9.00;6.20;;;;;;;;;;5063588;28;20260;-52
2023/03/06 01:00:05;;;;;;;5.63;5.00;;;;;;;;;;5063864;28;20265;-52
2023/03/06 01:02:31;;;;;;;7.07;6.47;;;;;;;;;;5064493;28;20238;-52
2023/03/06 01:04:58;;;;;;;6.03;5.40;;;;;;;;;;5064725;28;20249;-52
2023/03/06 01:07:26;;;;;;;5.30;4.77;;;;;;;;;;5061038;28;20296;-52
2023/03/06 01:09:53;;;;;;;6.97;5.90;;;;;;;;;;5066109;28;20229;-52
2023/03/06 01:12:19;;;;;;;8.93;5.87;;;;;;;;;;5061844;28;20242;-53
2023/03/06 01:14:46;;;;;;;7.33;6.50;;;;;;;;;;5062835;28;20262;-53
2023/03/06 01:17:12;;;;;;;8.27;6.00;;;;;;;;;;5058560;28;20256;-53
2023/03/06 01:19:39;;;;;;;7.97;5.63;;;;;;;;;;5064393;28;20229;-52
2023/03/06 01:22:06;;;;;;;8.13;6.17;;;;;;;;;;5063371;28;20236;-52
2023/03/06 01:24:33;;;;;;;6.83;6.17;;;;;;;;;;5062809;28;20242;-52
2023/03/06 01:27:01;;;;;;;8.47;6.17;;;;;;;;;;5055915;28;20245;-53
2023/03/06 01:29:28;;;;;;;6.80;5.83;;;;;;;;;;5056414;28;20273;-52
2023/03/06 01:31:54;;;;;;;6.40;5.80;;;;;;;;;;5060693;28;20249;-53
2023/03/06 01:34:21;;;;;;;9.57;6.40;;;;;;;;;;5061946;28;20346;-53
2023/03/06 01:36:47;;;;;;;6.80;5.33;;;;;;;;;;5063653;28;20258;-51
2023/03/06 01:39:14;;;;;;;7.33;5.83;;;;;;;;;;5062343;28;20696;-53
2023/03/06 01:41:41;;;;;;;8.30;6.90;;;;;;;;;;5063472;28;20235;-53
2023/03/06 01:44:09;;;;;;;7.33;6.33;;;;;;;;;;5063205;28;20238;-52
2023/03/06 01:46:41;;;;;;;9.00;7.77;;;;;;;;;;5063068;28;20294;-52
2023/03/06 01:49:18;;;;;;;9.67;7.37;;;;;;;;;;5062171;28;20238;-52
2023/03/06 01:51:47;;;;;;;9.47;7.43;;;;;;;;;;5062563;28;20237;-53
2023/03/06 01:54:16;;;;;;;8.97;7.40;;;;;;;;;;5062859;28;20237;-53
2023/03/06 01:56:44;;;;;;;8.50;6.87;;;;;;;;;;5063949;28;20283;-53
2023/03/06 01:59:12;;;;;;;9.10;7.43;;;;;;;;;;5061033;28;20241;-51
2023/03/06 02:01:39;;;;;;;12.47;8.50;;;;;;;;;;5063478;28;20231;-52
2023/03/06 02:04:06;;;;;;;10.07;8.20;;;;;;;;;;5064020;28;20257;-52
2023/03/06 02:06:33;;;;;;;9.37;7.47;;;;;;;;;;5064826;28;20244;-52
2023/03/06 02:09:00;;;;;;;10.47;8.90;;;;;;;;;;5063597;28;20774;-52
2023/03/06 02:11:26;;;;;;;10.30;8.23;;;;;;;;;;5062901;28;20623;-53
2023/03/06 02:13:53;;;;;;;11.00;8.93;;;;;;;;;;5063053;28;20250;-54
2023/03/06 02:16:23;;;;;;;11.17;7.50;;;;;;;;;;5059775;28;20238;-53
2023/03/06 02:18:50;;;;;;;12.27;9.70;;;;;;;;;;5062497;28;20320;-51
2023/03/06 02:21:20;;;;;;;11.67;9.53;;;;;;;;;;5061292;28;20226;-51
2023/03/06 02:23:50;;;;;;;12.80;9.27;;;;;;;;;;5053899;28;20326;-52
2023/03/06 02:26:19;;;;;;;11.60;7.73;;;;;;;;;;5062127;28;20253;-52
2023/03/06 02:28:46;;;;;;;10.87;9.20;;;;;;;;;;5053132;28;20849;-51
2023/03/06 02:31:19;;;;;;;11.83;8.57;;;;;;;;;;5061574;28;20237;-52
2023/03/06 02:33:46;;;;;;;10.13;8.20;;;;;;;;;;5058728;28;20701;-52
2023/03/06 02:36:14;;;;;;;12.30;8.33;;;;;;;;;;5062444;28;20603;-52
2023/03/06 02:38:48;;;;;;;9.13;7.23;;;;;;;;;;5058953;28;20231;-51
2023/03/06 02:41:15;;;;;;;10.73;7.57;;;;;;;;;;5059281;28;20234;-52
2023/03/06 02:43:43;;;;;;;9.53;7.33;;;;;;;;;;5064052;28;20230;-52
2023/03/06 02:46:10;;;;;;;10.53;7.80;;;;;;;;;;5058311;28;20659;-52
2023/03/06 02:48:36;;;;;;;8.70;7.80;;;;;;;;;;5054553;28;22156;-51
2023/03/06 02:51:03;;;;;;;8.90;6.47;;;;;;;;;;5058759;28;20244;-51
2023/03/06 02:53:30;;;;;;;11.87;7.93;;;;;;;;;;5059874;28;20237;-52
2023/03/06 02:55:56;;;;;;;7.20;5.87;;;;;;;;;;5064885;28;20230;-51
2023/03/06 02:58:23;;;;;;;9.10;6.37;;;;;;;;;;5062174;28;20238;-51
2023/03/06 03:00:51;;;;;;;10.27;6.73;;;;;;;;;;5063038;28;20237;-51
2023/03/06 03:03:17;;;;;;;8.37;5.83;;;;;;;;;;5061810;28;20811;-52
2023/03/06 03:05:44;;;;;;;6.17;5.07;;;;;;;;;;5060732;28;20863;-52
2023/03/06 03:08:11;;;;;;;13.47;6.00;;;;;;;;;;5062261;28;20231;-51
2023/03/06 03:10:37;;;;;;;11.93;5.47;;;;;;;;;;5066697;28;20929;-52
2023/03/06 03:13:04;;;;;;;8.93;6.60;;;;;;;;;;5066153;28;20254;-53
2023/03/06 03:15:32;;;;;;;10.83;5.47;;;;;;;;;;5066285;28;20238;-53
2023/03/06 03:18:00;;;;;;;5.13;4.63;;;;;;;;;;5065529;28;20317;-53
2023/03/06 03:20:27;;;;;;;6.33;4.93;;;;;;;;;;5064342;28;20234;-51
2023/03/06 03:22:54;;;;;;;10.37;5.53;;;;;;;;;;5062866;28;20231;-52
2023/03/06 03:25:22;;;;;;;6.37;4.50;;;;;;;;;;5062826;28;20226;-51
2023/03/06 03:27:48;;;;;;;7.27;4.87;;;;;;;;;;5065066;28;20246;-52
2023/03/06 03:30:15;;;;;;;7.77;4.73;;;;;;;;;;5064126;28;20401;-52
2023/03/06 03:32:42;;;;;;;4.23;3.83;;;;;;;;;;5067898;28;20250;-52
2023/03/06 03:35:10;;;;;;;4.30;4.00;;;;;;;;;;5065629;28;20684;-51
2023/03/06 03:37:37;;;;;;;5.33;4.03;;;;;;;;;;5066253;28;20258;-52
2023/03/06 03:40:05;;;;;;;8.27;3.93;;;;;;;;;;5062702;28;20246;-52
2023/03/06 03:42:32;;;;;;;4.93;4.53;;;;;;;;;;5064997;28;20245;-51
2023/03/06 03:44:58;;;;;;;7.03;4.27;;;;;;;;;;5064248;28;20949;-52
2023/03/06 03:47:25;;;;;;;9.17;4.00;;;;;;;;;;5058903;28;20242;-51
2023/03/06 03:49:52;;;;;;;5.47;4.43;;;;;;;;;;5055198;28;20234;-51
2023/03/06 03:52:20;;;;;;;4.50;4.10;;;;;;;;;;5053082;28;20951;-52
2023/03/06 03:54:46;;;;;;;3.23;2.93;;;;;;;;;;5063600;28;20226;-52
2023/03/06 03:57:13;;;;;;;4.67;4.23;;;;;;;;;;5066238;28;20242;-54
2023/03/06 03:59:39;;;;;;;6.47;3.30;;;;;;;;;;5062560;28;20799;-52
2023/03/06 04:02:06;;;;;;;5.23;3.87;;;;;;;;;;5065544;28;20364;-51
2023/03/06 04:04:32;;;;;;;5.73;4.73;;;;;;;;;;5062100;28;21920;-54
2023/03/06 04:06:59;;;;;;;7.30;4.03;;;;;;;;;;5062857;28;20518;-51
2023/03/06 04:09:27;;;;;;;4.70;4.30;;;;;;;;;;5062448;28;20242;-51
2023/03/06 04:11:53;;;;;;;3.23;2.93;;;;;;;;;;5053575;28;20330;-52
2023/03/06 04:14:20;;;;;;;2.90;2.27;;;;;;;;;;5060742;28;20234;-52
2023/03/06 04:16:47;;;;;;;2.87;2.60;;;;;;;;;;5060962;28;20229;-53
2023/03/06 04:19:13;;;;;;;5.47;2.90;;;;;;;;;;5062618;28;20238;-51
2023/03/06 04:21:40;;;;;;;2.30;2.10;;;;;;;;;;5061350;28;20229;-52
2023/03/06 04:24:07;;;;;;;4.47;2.87;;;;;;;;;;5064891;28;20237;-52
2023/03/06 04:26:35;;;;;;;2.60;2.40;;;;;;;;;;5063353;28;20887;-51
2023/03/06 04:29:02;;;;;;;2.57;2.20;;;;;;;;;;5063018;28;20673;-52
2023/03/06 04:31:28;;;;;;;2.60;2.40;;;;;;;;;;5063726;28;20239;-52
2023/03/06 04:33:55;;;;;;;3.17;2.10;;;;;;;;;;5065133;28;20288;-52
2023/03/06 04:36:25;;;;;;;3.03;2.50;;;;;;;;;;5062577;28;20305;-52
2023/03/06 04:38:52;;;;;;;2.33;2.13;;;;;;;;;;5064901;28;20238;-52
2023/03/06 04:41:18;;;;;;;2.60;2.40;;;;;;;;;;5061263;28;20234;-51
2023/03/06 04:43:46;;;;;;;3.67;2.33;;;;;;;;;;5057902;28;20238;-52
2023/03/06 04:46:13;;;;;;;1.97;1.87;;;;;;;;;;5061415;28;20459;-52
2023/03/06 04:48:39;;;;;;;2.73;2.47;;;;;;;;;;5061161;28;20223;-52
2023/03/06 04:51:06;;;;;;;2.30;2.10;;;;;;;;;;5059207;28;20251;-51
2023/03/06 04:53:32;;;;;;;2.63;2.43;;;;;;;;;;5061693;28;20240;-52
2023/03/06 04:55:59;;;;;;;2.50;2.30;;;;;;;;;;5059526;28;20314;-52
2023/03/06 04:58:25;;;;;;;2.63;2.20;;;;;;;;;;5060720;28;20231;-51
2023/03/06 05:00:53;;;;;;;2.47;2.28;;;;;;;;;;5018718;28;1252521;-52
2023/03/06 05:03:20;;;;;;;2.03;1.90;;;;;;;;;;5062825;28;20235;-51
2023/03/06 05:05:47;;;;;;;2.53;2.33;;;;;;;;;;5065407;28;20311;-52
2023/03/06 05:08:14;;;;;;;2.17;2.07;;;;;;;;;;5064652;28;20774;-54
2023/03/06 05:10:41;;;;;;;2.53;2.33;;;;;;;;;;5064631;28;20250;-51
2023/03/06 05:13:07;;;;;;;2.30;2.10;;;;;;;;;;5065760;28;20296;-52
2023/03/06 05:15:34;;;;;;;2.73;2.33;;;;;;;;;;5056714;28;20391;-51
2023/03/06 05:18:02;;;;;;;2.23;2.13;;;;;;;;;;5061768;28;20234;-51
2023/03/06 05:20:28;;;;;;;2.50;2.30;;;;;;;;;;5060837;28;20242;-52
2023/03/06 05:22:55;;;;;;;3.77;2.00;;;;;;;;;;5066736;28;20771;-52
2023/03/06 05:25:22;;;;;;;2.27;2.17;;;;;;;;;;5062362;28;20259;-51
2023/03/06 05:27:48;;;;;;;2.30;2.10;;;;;;;;;;5057540;28;20235;-54
2023/03/06 05:30:15;;;;;;;2.47;2.27;;;;;;;;;;5055860;28;20227;-52
2023/03/06 05:32:42;;;;;;;2.10;1.90;;;;;;;;;;5057836;28;20238;-55
2023/03/06 05:35:15;;;;;;;2.70;2.50;;;;;;;;;;5070639;28;20507;-52
2023/03/06 05:37:42;;;;;;;2.03;1.83;;;;;;;;;;5066291;28;20681;-52
2023/03/06 05:40:09;;;;;;;2.60;2.40;;;;;;;;;;5053940;28;20257;-50
2023/03/06 05:42:36;;;;;;;2.43;2.23;;;;;;;;;;5064223;28;20245;-52
2023/03/06 05:45:03;;;;;;;2.53;2.33;;;;;;;;;;5061180;28;20235;-53
2023/03/06 05:47:29;;;;;;;3.17;2.87;;;;;;;;;;5057648;28;20242;-53
2023/03/06 05:49:56;;;;;;;2.63;2.43;;;;;;;;;;5068395;28;20712;-53
2023/03/06 05:52:24;;;;;;;3.00;2.40;;;;;;;;;;5063752;28;20234;-54
2023/03/06 05:54:51;;;;;;;3.10;2.80;;;;;;;;;;5063246;28;20657;-53
2023/03/06 05:57:19;;;;;;;2.53;2.33;;;;;;;;;;5071374;28;20231;-53
2023/03/06 05:59:45;;;;;;;2.13;2.00;;;;;;;;;;5069900;28;20228;-52
2023/03/06 06:02:12;;;;;;;2.40;2.20;;;;;;;;;;5076295;28;20242;-52
2023/03/06 06:04:38;;;;;;;3.43;2.50;;;;;;;;;;5072524;28;20248;-52
2023/03/06 06:07:05;;;;;;;2.63;2.20;;;;;;;;;;5073428;28;20326;-55
2023/03/06 06:09:33;;;;;;;3.30;2.37;;;;;;;;;;5069583;28;20237;-52
2023/03/06 06:12:01;;;;;;;3.57;2.60;;;;;;;;;;5069174;28;20239;-54
2023/03/06 06:14:28;;;;;;;3.50;2.30;;;;;;;;;;5070500;28;20654;-53
2023/03/06 06:16:54;;;;;;;2.37;2.17;;;;;;;;;;5068468;28;20279;-53
2023/03/06 06:19:21;;;;;;;2.37;2.10;;;;;;;;;;5071664;28;20234;-54
2023/03/06 06:21:49;;;;;;;2.57;2.23;;;;;;;;;;5067724;28;20265;-52
2023/03/06 06:24:16;;;;;;;3.77;2.97;;;;;;;;;;5061349;28;20789;-53
2023/03/06 06:26:45;;;;;;;2.73;2.53;;;;;;;;;;5055282;28;20226;-53
2023/03/06 06:29:12;;;;;;;2.80;2.60;;;;;;;;;;5063763;28;20234;-54
2023/03/06 06:31:39;;;;;;;3.03;2.73;;;;;;;;;;5061153;28;21055;-52
2023/03/06 06:34:06;;;;;;;4.37;2.77;;;;;;;;;;5060838;28;20326;-53
2023/03/06 06:36:33;;;;;;;2.47;2.27;;;;;;;;;;5058451;28;20257;-54
2023/03/06 06:39:00;;;;;;;3.13;2.83;;;;;;;;;;5059737;28;20235;-53
2023/03/06 06:41:27;;;;;;;3.03;2.80;;;;;;;;;;5061355;28;20673;-53
2023/03/06 06:43:55;;;;;;;2.50;2.20;;;;;;;;;;5056636;28;20270;-53
2023/03/06 06:46:21;;;;;;;3.50;2.93;;;;;;;;;;5056657;28;20238;-53
2023/03/06 06:48:48;;;;;;;3.50;2.60;;;;;;;;;;5058145;28;20890;-52
2023/03/06 06:51:15;;;;;;;2.87;2.67;;;;;;;;;;5059638;28;20733;-53
2023/03/06 06:53:41;;;;;;;3.70;3.37;;;;;;;;;;5057990;28;20234;-53
2023/03/06 06:56:07;;;;;;;3.20;2.90;;;;;;;;;;5053366;28;20257;-53
2023/03/06 06:58:34;;;;;;;4.33;2.90;;;;;;;;;;5060702;28;20296;-53
2023/03/06 07:01:05;;;;;;;3.23;2.90;;;;;;;;;;5058009;28;20253;-54
2023/03/06 07:03:32;;;;;;;2.73;2.53;;;;;;;;;;5061193;28;20334;-54
2023/03/06 07:05:58;;;;;;;3.90;3.07;;;;;;;;;;5063260;28;20238;-54
2023/03/06 07:08:25;;;;;;;4.17;2.67;;;;;;;;;;5052667;28;20234;-54
2023/03/06 07:10:52;;;;;;;3.07;2.77;;;;;;;;;;5057035;28;20237;-55
2023/03/06 07:13:18;;;;;;;2.83;2.40;;;;;;;;;;5059535;28;20317;-54
2023/03/06 07:15:45;;;;;;;3.33;3.03;;;;;;;;;;5057265;28;20231;-55
2023/03/06 07:18:13;;;;;;;5.10;2.97;;;;;;;;;;5057842;28;20258;-54
2023/03/06 07:20:40;;;;;;;2.63;2.23;;;;;;;;;;5054696;28;20231;-53
2023/03/06 07:23:07;;;;;;;2.83;2.47;;;;;;;;;;5062981;28;20597;-53
2023/03/06 07:25:34;;;;;;;3.07;2.60;;;;;;;;;;5060614;28;20643;-55
2023/03/06 07:28:00;;;;;;;3.17;2.87;;;;;;;;;;5060572;28;20676;-54
2023/03/06 07:30:27;;;;;;;3.53;3.00;;;;;;;;;;5057118;28;20258;-55
2023/03/06 07:32:54;;;;;;;3.37;2.67;;;;;;;;;;5056980;28;20892;-55
2023/03/06 07:35:22;;;;;;;4.50;2.73;;;;;;;;;;5063636;28;20739;-56
2023/03/06 07:37:49;;;;;;;2.93;2.20;;;;;;;;;;5057264;28;20356;-53
2023/03/06 07:40:17;;;;;;;3.47;3.17;;;;;;;;;;5058091;28;20735;-55
2023/03/06 07:42:43;;;;;;;4.17;2.90;;;;;;;;;;5052800;28;20236;-56
2023/03/06 07:45:11;;;;;;;3.40;2.70;;;;;;;;;;5059747;28;20243;-54
2023/03/06 07:47:38;;;;;;;3.27;2.97;;;;;;;;;;5054909;28;20265;-55
2023/03/06 07:50:06;;;;;;;4.53;3.23;;;;;;;;;;5061916;28;20603;-53
2023/03/06 07:52:34;;;;;;;4.17;2.77;;;;;;;;;;5055509;28;20261;-54
2023/03/06 07:55:00;;;;;;;4.10;3.17;;;;;;;;;;5060067;28;20240;-53
2023/03/06 07:57:27;;;;;;;3.17;2.87;;;;;;;;;;5065198;28;20299;-54
2023/03/06 07:59:53;;;;;;;2.90;2.70;;;;;;;;;;5067754;28;20717;-53
2023/03/06 08:02:20;;;;;;;4.80;4.10;;;;;;;;;;5065407;28;20238;-52
2023/03/06 08:04:51;;;;;;;3.00;2.67;;;;;;;;;;5066276;28;20269;-54
2023/03/06 08:07:17;;;;;;;5.10;3.37;;;;;;;;;;5057537;28;20291;-53
2023/03/06 08:09:45;;;;;;;2.87;2.67;;;;;;;;;;5058683;28;20268;-53
2023/03/06 08:12:12;;;;;;;4.17;3.17;;;;;;;;;;5057870;28;20697;-53
2023/03/06 08:14:38;;;;;;;3.13;2.87;;;;;;;;;;5064326;28;20226;-53
2023/03/06 08:17:05;;;;;;;3.87;3.00;;;;;;;;;;5060908;28;20252;-54
2023/03/06 08:19:31;;;;;;;4.30;3.40;;;;;;;;;;5063415;28;20263;-52
2023/03/06 08:21:58;;;;;;;3.70;3.40;;;;;;;;;;5056560;28;20231;-54
2023/03/06 08:24:25;;;;;;;7.70;4.40;;;;;;;;;;5064990;28;20239;-52
2023/03/06 08:26:53;;;;;;;6.97;3.50;;;;;;;;;;5066466;28;20268;-53
2023/03/06 08:29:19;;;;;;;6.30;3.83;;;;;;;;;;5055125;28;20277;-52
2023/03/06 08:31:47;;;;;;;3.63;3.33;;;;;;;;;;5058592;28;20238;-54
2023/03/06 08:34:14;;;;;;;7.93;3.10;;;;;;;;;;5052285;28;20400;-52
2023/03/06 08:36:40;;;;;;;4.13;3.50;;;;;;;;;;5058367;28;20232;-53
2023/03/06 08:39:07;;;;;;;6.63;3.83;;;;;;;;;;5057448;28;20256;-52
2023/03/06 08:41:34;;;;;;;4.10;3.30;;;;;;;;;;5063328;28;20242;-53
2023/03/06 08:44:02;;;;;;;4.30;3.10;;;;;;;;;;5060449;28;20239;-52
2023/03/06 08:46:29;;;;;;;3.37;3.10;;;;;;;;;;5061365;28;20226;-53
2023/03/06 08:48:55;;;;;;;3.90;2.90;;;;;;;;;;5061327;28;20245;-53
2023/03/06 08:51:22;;;;;;;3.13;2.90;;;;;;;;;;5063523;28;20245;-51
2023/03/06 08:53:48;;;;;;;6.23;3.30;;;;;;;;;;5062185;28;20248;-52
2023/03/06 08:56:15;;;;;;;3.17;2.87;;;;;;;;;;5059625;28;20857;-53
2023/03/06 08:58:42;;;;;;;2.90;2.60;;;;;;;;;;5059574;28;20226;-54
2023/03/06 09:01:13;;;;;;;2.30;2.10;;;;;;;;;;5066440;28;20309;-53
2023/03/06 09:03:40;;;;;;;3.20;2.90;;;;;;;;;;5063659;28;20263;-52
2023/03/06 09:06:06;;;;;;;2.90;2.57;;;;;;;;;;5064710;28;20262;-51
2023/03/06 09:08:32;;;;;;;10.33;7.30;;;;;;;;;;5062328;28;20313;-52
2023/03/06 09:10:59;;;;;;;3.47;3.17;;;;;;;;;;5057804;28;20257;-51
2023/03/06 09:13:25;;;;;;;4.97;3.07;;;;;;;;;;5062463;28;20317;-53
2023/03/06 09:15:52;;;;;;;5.23;2.87;;;;;;;;;;5057626;28;20252;-53
2023/03/06 09:18:19;;;;;;;3.00;2.77;;;;;;;;;;5055740;28;20336;-52
2023/03/06 09:20:46;;;;;;;6.00;3.13;;;;;;;;;;5064271;28;20324;-52
2023/03/06 09:23:12;;;;;;;4.13;3.47;;;;;;;;;;5064408;28;20609;-52
2023/03/06 09:25:38;;;;;;;3.30;2.97;;;;;;;;;;5044704;28;20240;-53
2023/03/06 09:28:05;;;;;;;3.57;2.77;;;;;;;;;;5060031;28;20234;-51
2023/03/06 09:30:31;;;;;;;2.57;2.37;;;;;;;;;;5063870;28;20262;-51
2023/03/06 09:32:57;;;;;;;3.53;2.50;;;;;;;;;;5061375;28;20238;-51
2023/03/06 09:35:25;;;;;;;4.93;2.67;;;;;;;;;;5064914;28;20325;-51
2023/03/06 09:37:52;;;;;;;2.70;1.90;;;;;;;;;;5059218;28;20368;-52
2023/03/06 09:40:21;;;;;;;5.93;2.63;;;;;;;;;;5064117;28;20602;-52
2023/03/06 09:42:47;;;;;;;4.97;2.83;;;;;;;;;;5061846;28;20317;-52
2023/03/06 09:45:14;;;;;;;2.53;2.30;;;;;;;;;;5056363;28;20980;-52
2023/03/06 09:47:45;;;;;;;4.97;2.77;;;;;;;;;;5061977;28;20716;-52
2023/03/06 09:50:20;;;;;;;3.10;2.90;;;;;;;;;;5061296;28;20239;-53
2023/03/06 09:52:54;;;;;;;7.43;3.80;;;;;;;;;;5056631;28;20315;-52
2023/03/06 09:55:22;;;;;;;2.07;1.87;;;;;;;;;;5057188;28;20305;-52
2023/03/06 09:57:53;;;;;;;1.83;1.73;;;;;;;;;;5063902;28;20238;-52
2023/03/06 10:00:23;;;;;;;1.87;1.73;;;;;;;;;;5059588;28;20230;-51
2023/03/06 10:02:51;;;;;;;1.60;1.33;;;;;;;;;;5059328;28;20308;-52
2023/03/06 10:05:21;;;;;;;2.07;1.60;;;;;;;;;;5060599;28;20303;-51
2023/03/06 10:07:52;;;;;;;1.97;1.87;;;;;;;;;;5063707;28;20245;-52
2023/03/06 10:10:20;;;;;;;2.80;1.60;;;;;;;;;;5063632;28;20291;-53
2023/03/06 10:12:50;;;;;;;2.70;1.77;;;;;;;;;;5063284;28;20322;-52
2023/03/06 10:15:17;;;;;;;2.10;1.77;;;;;;;;;;5061093;28;20226;-53
2023/03/06 10:17:44;;;;;;;2.17;1.97;;;;;;;;;;5068046;28;20249;-56
2023/03/06 10:20:18;;;;;;;2.90;1.83;;;;;;;;;;5068238;28;20293;-51
2023/03/06 10:22:46;;;;;;;3.03;2.27;;;;;;;;;;5074171;28;20238;-53
2023/03/06 10:25:18;;;;;;;2.10;1.90;;;;;;;;;;5067499;28;20254;-54
2023/03/06 10:27:46;;;;;;;1.87;1.77;;;;;;;;;;5056697;28;20236;-52
2023/03/06 10:30:19;;;;;;;1.70;1.60;;;;;;;;;;5059819;28;20227;-52
2023/03/06 10:32:47;;;;;;;1.40;1.30;;;;;;;;;;5058058;28;20238;-52
2023/03/06 10:35:15;;;;;;;2.20;1.33;;;;;;;;;;5057676;28;20234;-51
2023/03/06 10:37:42;;;;;;;1.30;1.20;;;;;;;;;;5059230;28;21070;-52
2023/03/06 10:40:14;;;;;;;2.23;1.13;;;;;;;;;;5059258;28;20241;-52
2023/03/06 10:42:42;;;;;;;2.63;1.70;;;;;;;;;;5062605;28;20228;-53
2023/03/06 10:45:10;;;;;;;2.90;1.73;;;;;;;;;;5062454;28;20239;-51
2023/03/06 10:47:37;;;;;;;2.73;2.53;;;;;;;;;;5058685;28;20632;-53
2023/03/06 10:50:05;;;;;;;1.87;1.77;;;;;;;;;;5061062;28;20230;-50
2023/03/06 10:52:32;;;;;;;1.30;1.20;;;;;;;;;;5058072;28;20794;-54
2023/03/06 10:55:13;;;;;;;2.17;1.40;;;;;;;;;;5062738;28;20230;-53
2023/03/06 10:57:39;;;;;;;2.17;1.87;;;;;;;;;;5057418;28;20242;-52
2023/03/06 11:00:22;;;;;;;3.30;1.60;;;;;;;;;;5059585;28;20234;-54
2023/03/06 11:03:03;;;;;;;4.17;1.83;;;;;;;;;;5055309;28;20687;-51
2023/03/06 11:05:29;;;;;;;2.07;1.90;;;;;;;;;;5059983;28;20238;-52
2023/03/06 11:07:58;;;;;;;1.60;1.50;;;;;;;;;;5056384;28;20238;-53
2023/03/06 11:10:24;;;;;;;3.23;2.00;;;;;;;;;;5061242;28;20225;-53
2023/03/06 11:12:57;;;;;;;1.50;1.20;;;;;;;;;;5060133;28;20334;-53
2023/03/06 11:15:26;;;;;;;2.20;1.83;;;;;;;;;;5057791;28;20240;-53
2023/03/06 11:17:57;;;;;;;3.73;2.10;;;;;;;;;;5057693;28;20469;-52
2023/03/06 11:20:25;;;;;;;2.33;2.00;;;;;;;;;;5059809;28;20237;-53
2023/03/06 11:22:53;;;;;;;3.20;1.60;;;;;;;;;;5054782;28;20253;-57
2023/03/06 11:25:20;;;;;;;1.30;1.20;;;;;;;;;;5056413;28;20238;-53
2023/03/06 11:27:51;;;;;;;1.97;1.53;;;;;;;;;;5059840;28;20998;-51
2023/03/06 11:30:18;;;;;;;4.03;1.70;;;;;;;;;;5061376;28;21001;-51
2023/03/06 11:32:51;;;;;;;1.60;1.30;;;;;;;;;;5056448;28;20241;-53
2023/03/06 11:35:21;;;;;;;2.67;2.30;;;;;;;;;;5066662;28;20321;-52
2023/03/06 11:37:50;;;;;;;2.90;2.00;;;;;;;;;;5063657;28;20275;-51
2023/03/06 11:40:20;;;;;;;3.03;1.53;;;;;;;;;;5060022;28;20317;-51
2023/03/06 11:42:51;;;;;;;5.00;1.73;;;;;;;;;;5064682;28;20242;-53
2023/03/06 11:45:26;;;;;;;2.40;1.63;;;;;;;;;;5059533;28;20248;-51
2023/03/06 11:47:57;;;;;;;3.43;1.50;;;;;;;;;;5060676;28;20795;-51
2023/03/06 11:50:27;;;;;;;3.33;1.27;;;;;;;;;;5063301;28;20258;-50
2023/03/06 11:52:56;;;;;;;2.23;1.30;;;;;;;;;;5061785;28;20269;-51
2023/03/06 11:55:28;;;;;;;2.53;1.20;;;;;;;;;;5061354;28;20333;-53
2023/03/06 11:57:59;;;;;;;3.17;1.50;;;;;;;;;;5062756;28;20318;-52
2023/03/06 12:00:30;;;;;;;1.67;1.57;;;;;;;;;;5065070;28;20298;-51
2023/03/06 12:03:13;;;;;;;3.40;2.73;;;;;;;;;;5059685;28;20262;-53
2023/03/06 12:05:42;;;;;;;3.53;1.70;;;;;;;;;;5063371;28;20252;-52
2023/03/06 12:08:24;;;;;;;2.10;1.57;;;;;;;;;;5060558;28;20743;-52
2023/03/06 12:10:52;;;;;;;2.03;1.60;;;;;;;;;;5059093;28;20301;-52
2023/03/06 12:13:46;;;;;;;4.67;1.67;;;;;;;;;;5059107;28;20245;-52
2023/03/06 12:16:23;;;;;;;1.70;1.47;;;;;;;;;;5062319;28;20403;-53
2023/03/06 12:18:53;;;;;;;3.20;1.87;;;;;;;;;;5063630;28;20230;-53
2023/03/06 12:21:24;;;;;;;3.10;2.20;;;;;;;;;;5063810;28;20261;-52
2023/03/06 12:23:59;;;;;;;3.10;2.20;;;;;;;;;;5062031;28;20744;-52
2023/03/06 12:26:36;;;;;;;2.53;2.33;;;;;;;;;;5063465;28;20748;-52
2023/03/06 12:29:12;;;;;;;2.70;2.50;;;;;;;;;;5054189;28;20242;-53
2023/03/06 12:31:45;;;;;;;3.47;2.33;;;;;;;;;;5053694;28;20241;-52
2023/03/06 12:34:19;;;;;;;2.97;2.10;;;;;;;;;;5062010;28;20612;-51
2023/03/06 12:36:51;;;;;;;2.37;2.20;;;;;;;;;;5060384;28;20240;-52
2023/03/06 12:39:21;;;;;;;5.20;2.50;;;;;;;;;;5063990;28;21076;-52
2023/03/06 12:41:56;;;;;;;3.87;1.97;;;;;;;;;;5061561;28;20234;-52
2023/03/06 12:44:38;;;;;;;5.33;2.27;;;;;;;;;;5062838;28;20340;-52
2023/03/06 12:47:08;;;;;;;2.53;1.40;;;;;;;;;;5058487;28;20354;-52
2023/03/06 12:49:38;;;;;;;3.03;1.90;;;;;;;;;;5060611;28;20230;-52
2023/03/06 12:52:06;;;;;;;2.43;2.00;;;;;;;;;;5063804;28;20246;-53
2023/03/06 12:54:35;;;;;;;3.33;1.63;;;;;;;;;;5055760;28;20324;-51
2023/03/06 12:57:01;;;;;;;1.43;1.20;;;;;;;;;;5058537;28;20237;-51
2023/03/06 12:59:49;;;;;;;1.77;1.37;;;;;;;;;;5062592;28;20342;-51
2023/03/06 13:02:36;;;;;;;6.53;1.93;;;;;;;;;;5054141;28;20354;-51
2023/03/06 13:05:21;;;;;;;2.93;1.70;;;;;;;;;;5059228;28;20336;-52
2023/03/06 13:07:54;;;;;;;1.17;1.07;;;;;;;;;;5061012;28;20227;-51
2023/03/06 13:10:22;;;;;;;1.70;1.57;;;;;;;;;;5064893;28;20764;-52
2023/03/06 13:12:54;;;;;;;1.27;1.17;;;;;;;;;;5063815;28;20490;-51
2023/03/06 13:15:48;;;;;;;1.63;1.37;;;;;;;;;;5061879;28;20712;-53
2023/03/06 13:18:35;;;;;;;2.33;1.40;;;;;;;;;;5034651;28;20709;-51
2023/03/06 13:21:03;;;;;;;2.10;1.67;;;;;;;;;;5031628;28;20224;-54
2023/03/06 13:23:51;;;;;;;2.87;1.47;;;;;;;;;;5055727;28;20250;-52
2023/03/06 13:26:38;;;;;;;2.03;1.50;;;;;;;;;;5061498;28;20233;-52
2023/03/06 13:29:25;;;;;;;3.73;1.60;;;;;;;;;;5030115;28;20234;-52
2023/03/06 13:32:06;;;;;;;1.70;1.27;;;;;;;;;;5057745;28;20601;-52
2023/03/06 13:34:33;;;;;;;2.47;1.40;;;;;;;;;;5054486;28;20226;-53
2023/03/06 13:37:14;;;;;;;1.93;1.43;;;;;;;;;;5061431;28;20236;-53
2023/03/06 13:39:56;;;;;;;3.00;1.90;;;;;;;;;;5059915;28;20769;-52
2023/03/06 13:42:27;;;;;;;2.67;1.77;;;;;;;;;;5057074;28;20234;-52
2023/03/06 13:44:54;;;;;;;3.47;1.50;;;;;;;;;;5063636;28;20231;-53
2023/03/06 13:47:31;;;;;;;1.40;1.00;;;;;;;;;;5060134;28;20250;-51
2023/03/06 13:49:58;;;;;;;3.07;1.20;;;;;;;;;;5058705;28;20238;-51
2023/03/06 13:52:32;;;;;;;2.53;1.27;;;;;;;;;;5060835;28;20314;-52
2023/03/06 13:55:03;;;;;;;2.27;1.17;;;;;;;;;;5063034;28;20682;-51
2023/03/06 13:57:38;;;;;;;4.00;0.90;;;;;;;;;;5057260;28;20236;-52
2023/03/06 14:00:19;;;;;;;2.43;1.27;;;;;;;;;;5056917;28;20769;-52
2023/03/06 14:02:54;;;;;;;4.07;1.57;;;;;;;;;;5062098;28;20244;-52
2023/03/06 14:05:21;;;;;;;2.50;1.37;;;;;;;;;;5059362;28;20310;-52
2023/03/06 14:07:48;;;;;;;1.10;1.00;;;;;;;;;;5058522;28;20314;-53
2023/03/06 14:10:20;;;;;;;6.57;1.80;;;;;;;;;;5064020;28;20734;-53
2023/03/06 14:13:02;;;;;;;1.53;1.10;;;;;;;;;;5060472;28;20240;-53
2023/03/06 14:15:32;;;;;;;4.90;1.60;;;;;;;;;;5064504;28;20341;-53
2023/03/06 14:18:00;;;;;;;1.43;1.13;;;;;;;;;;5062612;28;20283;-52
2023/03/06 14:20:32;;;;;;;3.33;1.10;;;;;;;;;;5060312;28;20284;-52
2023/03/06 14:23:13;;;;;;;2.03;1.40;;;;;;;;;;5063932;28;20235;-52
2023/03/06 14:25:41;;;;;;;2.00;1.20;;;;;;;;;;5061635;28;20242;-52
2023/03/06 14:28:20;;;;;;;1.10;0.90;;;;;;;;;;5060651;28;20326;-52
2023/03/06 14:30:48;;;;;;;1.10;1.00;;;;;;;;;;5056796;28;20751;-52
2023/03/06 14:33:21;;;;;;;4.47;1.40;;;;;;;;;;5058023;28;20299;-52
2023/03/06 14:35:51;;;;;;;1.53;1.40;;;;;;;;;;5063625;28;20303;-52
2023/03/06 14:38:17;;;;;;;2.27;1.20;;;;;;;;;;5057212;28;20234;-52
2023/03/06 14:40:44;;;;;;;3.33;1.70;;;;;;;;;;5053826;28;20308;-52
2023/03/06 14:43:23;;;;;;;6.80;1.73;;;;;;;;;;5063312;28;20254;-52
2023/03/06 14:45:50;;;;;;;2.97;1.20;;;;;;;;;;5062661;28;20238;-51
2023/03/06 14:48:17;;;;;;;3.53;1.40;;;;;;;;;;5059053;28;20318;-52
2023/03/06 14:50:47;;;;;;;1.63;1.00;;;;;;;;;;5050121;28;20763;-52
2023/03/06 14:53:15;;;;;;;1.40;1.30;;;;;;;;;;5062275;28;20243;-51